sensor_id;sensor_type;location;lat;lon;timestamp;P1;durP1;ratioP1;P2;durP2;ratioP2
26391;SDS011;14572;43.120;1.178;2024-01-11T00:00:45;28.05;;;13.77;;
26391;SDS011;14572;43.120;1.178;2024-01-11T00:03:12;35.83;;;15.70;;
26391;SDS011;14572;43.120;1.178;2024-01-11T00:05:40;27.48;;;14.48;;
26391;SDS011;14572;43.120;1.178;2024-01-11T00:08:08;36.55;;;17.50;;
26391;SDS011;14572;43.120;1.178;2024-01-11T00:10:35;34.03;;;16.90;;
26391;SDS011;14572;43.120;1.178;2024-01-11T00:13:02;21.23;;;11.73;;
26391;SDS011;14572;43.120;1.178;2024-01-11T00:15:30;20.75;;;11.43;;
26391;SDS011;14572;43.120;1.178;2024-01-11T00:17:57;19.20;;;10.25;;
26391;SDS011;14572;43.120;1.178;2024-01-11T00:20:24;23.10;;;11.45;;
26391;SDS011;14572;43.120;1.178;2024-01-11T00:22:52;27.63;;;14.60;;
26391;SDS011;14572;43.120;1.178;2024-01-11T00:25:19;24.88;;;13.95;;
26391;SDS011;14572;43.120;1.178;2024-01-11T00:27:46;33.33;;;12.80;;
26391;SDS011;14572;43.120;1.178;2024-01-11T00:30:13;23.02;;;11.43;;
26391;SDS011;14572;43.120;1.178;2024-01-11T00:32:41;23.63;;;12.25;;
26391;SDS011;14572;43.120;1.178;2024-01-11T00:35:08;19.63;;;11.30;;
26391;SDS011;14572;43.120;1.178;2024-01-11T00:37:35;17.42;;;10.15;;
26391;SDS011;14572;43.120;1.178;2024-01-11T00:40:04;18.60;;;10.30;;
26391;SDS011;14572;43.120;1.178;2024-01-11T00:42:32;20.27;;;10.05;;
26391;SDS011;14572;43.120;1.178;2024-01-11T00:45:00;26.42;;;11.38;;
26391;SDS011;14572;43.120;1.178;2024-01-11T00:47:27;27.73;;;11.77;;
26391;SDS011;14572;43.120;1.178;2024-01-11T00:49:54;30.85;;;12.13;;
26391;SDS011;14572;43.120;1.178;2024-01-11T00:52:20;125.05;;;13.93;;
26391;SDS011;14572;43.120;1.178;2024-01-11T00:54:47;44.92;;;17.48;;
26391;SDS011;14572;43.120;1.178;2024-01-11T00:57:16;39.67;;;19.55;;
26391;SDS011;14572;43.120;1.178;2024-01-11T00:59:43;49.15;;;20.48;;
26391;SDS011;14572;43.120;1.178;2024-01-11T01:02:10;53.97;;;20.98;;
26391;SDS011;14572;43.120;1.178;2024-01-11T01:04:37;52.72;;;22.23;;
26391;SDS011;14572;43.120;1.178;2024-01-11T01:07:04;67.80;;;23.60;;
26391;SDS011;14572;43.120;1.178;2024-01-11T01:09:32;66.07;;;21.42;;
26391;SDS011;14572;43.120;1.178;2024-01-11T01:11:59;51.20;;;21.60;;
26391;SDS011;14572;43.120;1.178;2024-01-11T01:14:28;57.08;;;21.48;;
26391;SDS011;14572;43.120;1.178;2024-01-11T01:16:55;70.07;;;25.15;;
26391;SDS011;14572;43.120;1.178;2024-01-11T01:19:23;91.15;;;23.00;;
26391;SDS011;14572;43.120;1.178;2024-01-11T01:21:49;38.45;;;18.50;;
26391;SDS011;14572;43.120;1.178;2024-01-11T01:24:16;38.65;;;18.90;;
26391;SDS011;14572;43.120;1.178;2024-01-11T01:26:43;33.83;;;17.33;;
26391;SDS011;14572;43.120;1.178;2024-01-11T01:29:10;34.05;;;17.33;;
26391;SDS011;14572;43.120;1.178;2024-01-11T01:31:39;32.42;;;16.70;;
26391;SDS011;14572;43.120;1.178;2024-01-11T01:34:06;36.45;;;18.10;;
26391;SDS011;14572;43.120;1.178;2024-01-11T01:36:33;35.15;;;18.17;;
26391;SDS011;14572;43.120;1.178;2024-01-11T01:39:00;50.17;;;18.85;;
26391;SDS011;14572;43.120;1.178;2024-01-11T01:41:28;46.53;;;19.23;;
26391;SDS011;14572;43.120;1.178;2024-01-11T01:43:55;35.28;;;16.65;;
26391;SDS011;14572;43.120;1.178;2024-01-11T01:46:23;27.20;;;14.60;;
26391;SDS011;14572;43.120;1.178;2024-01-11T01:48:52;29.00;;;14.77;;
26391;SDS011;14572;43.120;1.178;2024-01-11T01:51:20;27.17;;;13.40;;
26391;SDS011;14572;43.120;1.178;2024-01-11T01:53:48;29.20;;;14.30;;
26391;SDS011;14572;43.120;1.178;2024-01-11T01:56:16;29.50;;;16.00;;
26391;SDS011;14572;43.120;1.178;2024-01-11T01:58:43;28.58;;;15.55;;
26391;SDS011;14572;43.120;1.178;2024-01-11T02:01:10;120.03;;;19.63;;
26391;SDS011;14572;43.120;1.178;2024-01-11T02:03:38;27.33;;;13.35;;
26391;SDS011;14572;43.120;1.178;2024-01-11T02:06:06;25.50;;;13.88;;
26391;SDS011;14572;43.120;1.178;2024-01-11T02:08:33;23.38;;;13.07;;
26391;SDS011;14572;43.120;1.178;2024-01-11T02:11:01;23.63;;;12.35;;
26391;SDS011;14572;43.120;1.178;2024-01-11T02:13:28;27.88;;;13.73;;
26391;SDS011;14572;43.120;1.178;2024-01-11T02:15:55;25.42;;;13.77;;
26391;SDS011;14572;43.120;1.178;2024-01-11T02:18:22;28.00;;;14.82;;
26391;SDS011;14572;43.120;1.178;2024-01-11T02:20:49;31.85;;;15.93;;
26391;SDS011;14572;43.120;1.178;2024-01-11T02:23:19;26.80;;;14.82;;
26391;SDS011;14572;43.120;1.178;2024-01-11T02:25:49;24.50;;;13.25;;
26391;SDS011;14572;43.120;1.178;2024-01-11T02:28:17;35.00;;;14.88;;
26391;SDS011;14572;43.120;1.178;2024-01-11T02:30:44;24.85;;;14.23;;
26391;SDS011;14572;43.120;1.178;2024-01-11T02:33:11;20.75;;;11.80;;
26391;SDS011;14572;43.120;1.178;2024-01-11T02:35:41;22.40;;;12.52;;
26391;SDS011;14572;43.120;1.178;2024-01-11T02:38:08;22.10;;;12.23;;
26391;SDS011;14572;43.120;1.178;2024-01-11T02:40:35;20.70;;;11.43;;
26391;SDS011;14572;43.120;1.178;2024-01-11T02:43:11;16.73;;;10.00;;
26391;SDS011;14572;43.120;1.178;2024-01-11T02:45:38;21.42;;;11.82;;
26391;SDS011;14572;43.120;1.178;2024-01-11T02:48:05;21.00;;;12.05;;
26391;SDS011;14572;43.120;1.178;2024-01-11T02:50:32;39.25;;;12.68;;
26391;SDS011;14572;43.120;1.178;2024-01-11T02:52:59;16.92;;;10.35;;
26391;SDS011;14572;43.120;1.178;2024-01-11T02:55:26;17.38;;;10.63;;
26391;SDS011;14572;43.120;1.178;2024-01-11T02:57:53;17.48;;;10.05;;
26391;SDS011;14572;43.120;1.178;2024-01-11T03:00:21;19.27;;;9.85;;
26391;SDS011;14572;43.120;1.178;2024-01-11T03:02:48;23.15;;;12.18;;
26391;SDS011;14572;43.120;1.178;2024-01-11T03:05:16;23.63;;;12.32;;
26391;SDS011;14572;43.120;1.178;2024-01-11T03:07:43;24.45;;;12.68;;
26391;SDS011;14572;43.120;1.178;2024-01-11T03:10:10;21.65;;;11.55;;
26391;SDS011;14572;43.120;1.178;2024-01-11T03:12:37;30.17;;;12.88;;
26391;SDS011;14572;43.120;1.178;2024-01-11T03:15:06;22.52;;;11.45;;
26391;SDS011;14572;43.120;1.178;2024-01-11T03:17:35;17.90;;;10.35;;
26391;SDS011;14572;43.120;1.178;2024-01-11T03:20:02;16.67;;;9.75;;
26391;SDS011;14572;43.120;1.178;2024-01-11T03:22:30;25.02;;;11.75;;
26391;SDS011;14572;43.120;1.178;2024-01-11T03:24:57;19.50;;;10.35;;
26391;SDS011;14572;43.120;1.178;2024-01-11T03:27:24;22.17;;;12.23;;
26391;SDS011;14572;43.120;1.178;2024-01-11T03:29:51;22.95;;;12.60;;
26391;SDS011;14572;43.120;1.178;2024-01-11T03:32:18;24.10;;;12.50;;
26391;SDS011;14572;43.120;1.178;2024-01-11T03:34:46;16.63;;;9.48;;
26391;SDS011;14572;43.120;1.178;2024-01-11T03:37:13;15.93;;;9.77;;
26391;SDS011;14572;43.120;1.178;2024-01-11T03:39:41;15.77;;;9.07;;
26391;SDS011;14572;43.120;1.178;2024-01-11T03:42:08;16.20;;;8.80;;
26391;SDS011;14572;43.120;1.178;2024-01-11T03:44:36;16.15;;;9.07;;
26391;SDS011;14572;43.120;1.178;2024-01-11T03:47:03;16.83;;;9.80;;
26391;SDS011;14572;43.120;1.178;2024-01-11T03:49:30;19.02;;;10.40;;
26391;SDS011;14572;43.120;1.178;2024-01-11T03:51:59;25.98;;;10.70;;
26391;SDS011;14572;43.120;1.178;2024-01-11T03:54:25;21.27;;;10.07;;
26391;SDS011;14572;43.120;1.178;2024-01-11T03:56:52;19.15;;;9.73;;
26391;SDS011;14572;43.120;1.178;2024-01-11T03:59:19;16.27;;;9.48;;
26391;SDS011;14572;43.120;1.178;2024-01-11T04:01:46;95.72;;;12.90;;
26391;SDS011;14572;43.120;1.178;2024-01-11T04:04:13;18.73;;;10.40;;
26391;SDS011;14572;43.120;1.178;2024-01-11T04:06:40;33.17;;;15.37;;
26391;SDS011;14572;43.120;1.178;2024-01-11T04:09:08;22.38;;;12.10;;
26391;SDS011;14572;43.120;1.178;2024-01-11T04:11:35;30.60;;;13.50;;
26391;SDS011;14572;43.120;1.178;2024-01-11T04:14:02;18.33;;;10.90;;
26391;SDS011;14572;43.120;1.178;2024-01-11T04:16:29;17.33;;;9.98;;
26391;SDS011;14572;43.120;1.178;2024-01-11T04:18:56;19.83;;;11.00;;
26391;SDS011;14572;43.120;1.178;2024-01-11T04:21:23;20.20;;;9.73;;
26391;SDS011;14572;43.120;1.178;2024-01-11T04:23:53;17.02;;;9.52;;
26391;SDS011;14572;43.120;1.178;2024-01-11T04:26:22;21.33;;;10.38;;
26391;SDS011;14572;43.120;1.178;2024-01-11T04:28:49;14.18;;;8.77;;
26391;SDS011;14572;43.120;1.178;2024-01-11T04:31:17;38.92;;;9.82;;
26391;SDS011;14572;43.120;1.178;2024-01-11T04:33:44;25.85;;;9.02;;
26391;SDS011;14572;43.120;1.178;2024-01-11T04:36:12;19.13;;;9.57;;
26391;SDS011;14572;43.120;1.178;2024-01-11T04:38:39;26.80;;;12.97;;
26391;SDS011;14572;43.120;1.178;2024-01-11T04:41:07;18.95;;;9.73;;
26391;SDS011;14572;43.120;1.178;2024-01-11T04:43:37;15.15;;;8.45;;
26391;SDS011;14572;43.120;1.178;2024-01-11T04:46:12;12.25;;;7.70;;
26391;SDS011;14572;43.120;1.178;2024-01-11T04:48:39;13.25;;;7.15;;
26391;SDS011;14572;43.120;1.178;2024-01-11T04:51:06;16.88;;;7.65;;
26391;SDS011;14572;43.120;1.178;2024-01-11T04:53:35;14.48;;;7.95;;
26391;SDS011;14572;43.120;1.178;2024-01-11T04:56:03;13.70;;;7.30;;
26391;SDS011;14572;43.120;1.178;2024-01-11T04:58:30;12.93;;;7.60;;
26391;SDS011;14572;43.120;1.178;2024-01-11T05:00:59;13.65;;;7.43;;
26391;SDS011;14572;43.120;1.178;2024-01-11T05:03:27;13.98;;;7.35;;
26391;SDS011;14572;43.120;1.178;2024-01-11T05:05:54;10.77;;;6.35;;
26391;SDS011;14572;43.120;1.178;2024-01-11T05:08:21;12.37;;;6.83;;
26391;SDS011;14572;43.120;1.178;2024-01-11T05:10:49;11.65;;;6.80;;
26391;SDS011;14572;43.120;1.178;2024-01-11T05:13:16;13.75;;;6.80;;
26391;SDS011;14572;43.120;1.178;2024-01-11T05:15:43;15.73;;;7.57;;
26391;SDS011;14572;43.120;1.178;2024-01-11T05:18:12;11.85;;;5.95;;
26391;SDS011;14572;43.120;1.178;2024-01-11T05:20:39;12.10;;;6.28;;
26391;SDS011;14572;43.120;1.178;2024-01-11T05:23:06;11.13;;;6.40;;
26391;SDS011;14572;43.120;1.178;2024-01-11T05:25:33;9.75;;;5.20;;
26391;SDS011;14572;43.120;1.178;2024-01-11T05:28:01;10.73;;;5.53;;
26391;SDS011;14572;43.120;1.178;2024-01-11T05:30:28;9.98;;;5.93;;
26391;SDS011;14572;43.120;1.178;2024-01-11T05:32:55;10.57;;;5.28;;
26391;SDS011;14572;43.120;1.178;2024-01-11T05:35:24;9.77;;;5.35;;
26391;SDS011;14572;43.120;1.178;2024-01-11T05:37:52;10.40;;;5.55;;
26391;SDS011;14572;43.120;1.178;2024-01-11T05:40:20;10.35;;;5.80;;
26391;SDS011;14572;43.120;1.178;2024-01-11T05:42:47;11.35;;;6.35;;
26391;SDS011;14572;43.120;1.178;2024-01-11T05:45:14;10.52;;;5.72;;
26391;SDS011;14572;43.120;1.178;2024-01-11T05:47:42;14.10;;;6.97;;
26391;SDS011;14572;43.120;1.178;2024-01-11T05:50:09;8.13;;;5.53;;
26391;SDS011;14572;43.120;1.178;2024-01-11T05:52:38;9.98;;;5.70;;
26391;SDS011;14572;43.120;1.178;2024-01-11T05:55:05;8.63;;;5.00;;
26391;SDS011;14572;43.120;1.178;2024-01-11T05:57:32;9.00;;;5.75;;
26391;SDS011;14572;43.120;1.178;2024-01-11T05:59:59;9.98;;;6.00;;
26391;SDS011;14572;43.120;1.178;2024-01-11T06:02:26;11.02;;;5.93;;
26391;SDS011;14572;43.120;1.178;2024-01-11T06:04:53;8.48;;;5.70;;
26391;SDS011;14572;43.120;1.178;2024-01-11T06:07:20;11.93;;;5.88;;
26391;SDS011;14572;43.120;1.178;2024-01-11T06:09:48;10.13;;;5.65;;
26391;SDS011;14572;43.120;1.178;2024-01-11T06:12:15;9.63;;;5.75;;
26391;SDS011;14572;43.120;1.178;2024-01-11T06:14:42;9.18;;;5.45;;
26391;SDS011;14572;43.120;1.178;2024-01-11T06:17:09;10.65;;;6.07;;
26391;SDS011;14572;43.120;1.178;2024-01-11T06:19:37;10.50;;;5.60;;
26391;SDS011;14572;43.120;1.178;2024-01-11T06:22:04;11.35;;;5.88;;
26391;SDS011;14572;43.120;1.178;2024-01-11T06:24:31;12.70;;;6.07;;
26391;SDS011;14572;43.120;1.178;2024-01-11T06:26:59;10.65;;;5.28;;
26391;SDS011;14572;43.120;1.178;2024-01-11T06:29:26;12.48;;;5.53;;
26391;SDS011;14572;43.120;1.178;2024-01-11T06:31:54;12.05;;;6.65;;
26391;SDS011;14572;43.120;1.178;2024-01-11T06:34:21;12.35;;;6.60;;
26391;SDS011;14572;43.120;1.178;2024-01-11T06:36:48;11.55;;;6.18;;
26391;SDS011;14572;43.120;1.178;2024-01-11T06:39:15;22.97;;;8.53;;
26391;SDS011;14572;43.120;1.178;2024-01-11T06:41:42;23.40;;;7.53;;
26391;SDS011;14572;43.120;1.178;2024-01-11T06:44:10;22.70;;;10.27;;
26391;SDS011;14572;43.120;1.178;2024-01-11T06:46:37;98.47;;;19.33;;
26391;SDS011;14572;43.120;1.178;2024-01-11T06:49:06;30.35;;;15.43;;
26391;SDS011;14572;43.120;1.178;2024-01-11T06:51:33;30.90;;;14.65;;
26391;SDS011;14572;43.120;1.178;2024-01-11T06:54:00;36.07;;;16.77;;
26391;SDS011;14572;43.120;1.178;2024-01-11T06:56:27;26.83;;;12.47;;
26391;SDS011;14572;43.120;1.178;2024-01-11T06:58:54;21.00;;;10.33;;
26391;SDS011;14572;43.120;1.178;2024-01-11T07:01:22;18.47;;;9.13;;
26391;SDS011;14572;43.120;1.178;2024-01-11T07:03:50;14.07;;;8.13;;
26391;SDS011;14572;43.120;1.178;2024-01-11T07:06:17;16.10;;;7.90;;
26391;SDS011;14572;43.120;1.178;2024-01-11T07:08:44;11.88;;;6.65;;
26391;SDS011;14572;43.120;1.178;2024-01-11T07:11:11;10.50;;;6.03;;
26391;SDS011;14572;43.120;1.178;2024-01-11T07:13:38;15.07;;;6.77;;
26391;SDS011;14572;43.120;1.178;2024-01-11T07:16:05;11.45;;;6.55;;
26391;SDS011;14572;43.120;1.178;2024-01-11T07:18:33;14.50;;;7.10;;
26391;SDS011;14572;43.120;1.178;2024-01-11T07:21:00;12.05;;;6.35;;
26391;SDS011;14572;43.120;1.178;2024-01-11T07:23:27;13.10;;;6.78;;
26391;SDS011;14572;43.120;1.178;2024-01-11T07:25:54;14.73;;;6.40;;
26391;SDS011;14572;43.120;1.178;2024-01-11T07:28:21;10.18;;;6.22;;
26391;SDS011;14572;43.120;1.178;2024-01-11T07:30:52;11.18;;;5.45;;
26391;SDS011;14572;43.120;1.178;2024-01-11T07:33:22;9.23;;;5.35;;
26391;SDS011;14572;43.120;1.178;2024-01-11T07:35:50;12.15;;;6.30;;
26391;SDS011;14572;43.120;1.178;2024-01-11T07:38:17;11.43;;;6.05;;
26391;SDS011;14572;43.120;1.178;2024-01-11T07:40:44;62.42;;;6.22;;
26391;SDS011;14572;43.120;1.178;2024-01-11T07:43:11;18.08;;;7.75;;
26391;SDS011;14572;43.120;1.178;2024-01-11T07:45:39;43.38;;;15.77;;
26391;SDS011;14572;43.120;1.178;2024-01-11T07:48:06;39.92;;;19.45;;
26391;SDS011;14572;43.120;1.178;2024-01-11T07:50:33;33.33;;;17.58;;
26391;SDS011;14572;43.120;1.178;2024-01-11T07:53:02;191.15;;;26.98;;
26391;SDS011;14572;43.120;1.178;2024-01-11T07:55:30;116.20;;;24.55;;
26391;SDS011;14572;43.120;1.178;2024-01-11T07:57:57;113.53;;;23.15;;
26391;SDS011;14572;43.120;1.178;2024-01-11T08:00:24;32.00;;;16.70;;
26391;SDS011;14572;43.120;1.178;2024-01-11T08:02:51;51.88;;;19.50;;
26391;SDS011;14572;43.120;1.178;2024-01-11T08:05:19;44.43;;;18.47;;
26391;SDS011;14572;43.120;1.178;2024-01-11T08:07:46;48.95;;;20.70;;
26391;SDS011;14572;43.120;1.178;2024-01-11T08:10:15;48.90;;;25.03;;
26391;SDS011;14572;43.120;1.178;2024-01-11T08:12:42;42.55;;;20.58;;
26391;SDS011;14572;43.120;1.178;2024-01-11T08:15:09;40.72;;;21.15;;
26391;SDS011;14572;43.120;1.178;2024-01-11T08:17:37;39.25;;;20.08;;
26391;SDS011;14572;43.120;1.178;2024-01-11T08:20:05;34.92;;;16.88;;
26391;SDS011;14572;43.120;1.178;2024-01-11T08:22:33;20.30;;;10.82;;
26391;SDS011;14572;43.120;1.178;2024-01-11T08:25:01;19.13;;;9.50;;
26391;SDS011;14572;43.120;1.178;2024-01-11T08:27:31;23.90;;;12.10;;
26391;SDS011;14572;43.120;1.178;2024-01-11T08:29:58;36.88;;;16.40;;
26391;SDS011;14572;43.120;1.178;2024-01-11T08:32:26;43.80;;;18.92;;
26391;SDS011;14572;43.120;1.178;2024-01-11T08:34:54;32.57;;;16.00;;
26391;SDS011;14572;43.120;1.178;2024-01-11T08:37:21;33.67;;;16.13;;
26391;SDS011;14572;43.120;1.178;2024-01-11T08:39:48;28.08;;;14.65;;
26391;SDS011;14572;43.120;1.178;2024-01-11T08:42:15;29.88;;;15.45;;
26391;SDS011;14572;43.120;1.178;2024-01-11T08:44:44;20.77;;;11.60;;
26391;SDS011;14572;43.120;1.178;2024-01-11T08:47:12;18.58;;;9.75;;
26391;SDS011;14572;43.120;1.178;2024-01-11T08:49:40;16.95;;;8.73;;
26391;SDS011;14572;43.120;1.178;2024-01-11T08:52:07;16.25;;;9.43;;
26391;SDS011;14572;43.120;1.178;2024-01-11T08:54:34;13.23;;;7.95;;
26391;SDS011;14572;43.120;1.178;2024-01-11T08:57:01;14.98;;;7.90;;
26391;SDS011;14572;43.120;1.178;2024-01-11T08:59:28;13.50;;;7.15;;
26391;SDS011;14572;43.120;1.178;2024-01-11T09:01:56;12.82;;;6.60;;
26391;SDS011;14572;43.120;1.178;2024-01-11T09:04:23;10.13;;;6.13;;
26391;SDS011;14572;43.120;1.178;2024-01-11T09:06:50;10.82;;;6.32;;
26391;SDS011;14572;43.120;1.178;2024-01-11T09:09:17;9.68;;;5.55;;
26391;SDS011;14572;43.120;1.178;2024-01-11T09:11:44;9.80;;;6.03;;
26391;SDS011;14572;43.120;1.178;2024-01-11T09:14:11;9.48;;;5.63;;
26391;SDS011;14572;43.120;1.178;2024-01-11T09:16:38;11.13;;;5.75;;
26391;SDS011;14572;43.120;1.178;2024-01-11T09:19:07;11.80;;;5.72;;
26391;SDS011;14572;43.120;1.178;2024-01-11T09:21:34;9.15;;;5.93;;
26391;SDS011;14572;43.120;1.178;2024-01-11T09:24:02;8.35;;;5.30;;
26391;SDS011;14572;43.120;1.178;2024-01-11T09:26:29;8.35;;;5.43;;
26391;SDS011;14572;43.120;1.178;2024-01-11T09:28:56;10.68;;;6.28;;
26391;SDS011;14572;43.120;1.178;2024-01-11T09:31:23;11.15;;;6.40;;
26391;SDS011;14572;43.120;1.178;2024-01-11T09:33:50;11.73;;;6.88;;
26391;SDS011;14572;43.120;1.178;2024-01-11T09:36:19;13.95;;;7.38;;
26391;SDS011;14572;43.120;1.178;2024-01-11T09:38:46;18.13;;;9.05;;
26391;SDS011;14572;43.120;1.178;2024-01-11T09:41:13;16.23;;;9.30;;
26391;SDS011;14572;43.120;1.178;2024-01-11T09:43:41;13.32;;;8.07;;
26391;SDS011;14572;43.120;1.178;2024-01-11T09:46:09;13.77;;;7.75;;
26391;SDS011;14572;43.120;1.178;2024-01-11T09:48:37;13.57;;;7.80;;
26391;SDS011;14572;43.120;1.178;2024-01-11T09:51:05;14.80;;;8.05;;
26391;SDS011;14572;43.120;1.178;2024-01-11T09:53:37;11.35;;;6.55;;
26391;SDS011;14572;43.120;1.178;2024-01-11T09:56:05;11.73;;;6.95;;
26391;SDS011;14572;43.120;1.178;2024-01-11T09:58:34;8.85;;;5.97;;
26391;SDS011;14572;43.120;1.178;2024-01-11T10:01:02;11.07;;;7.28;;
26391;SDS011;14572;43.120;1.178;2024-01-11T10:03:29;12.80;;;7.53;;
26391;SDS011;14572;43.120;1.178;2024-01-11T10:05:57;11.38;;;6.95;;
26391;SDS011;14572;43.120;1.178;2024-01-11T10:08:24;10.45;;;6.40;;
26391;SDS011;14572;43.120;1.178;2024-01-11T10:10:53;9.23;;;5.70;;
26391;SDS011;14572;43.120;1.178;2024-01-11T10:13:25;10.45;;;5.80;;
26391;SDS011;14572;43.120;1.178;2024-01-11T10:16:03;9.65;;;6.07;;
26391;SDS011;14572;43.120;1.178;2024-01-11T10:18:32;10.15;;;5.95;;
26391;SDS011;14572;43.120;1.178;2024-01-11T10:20:59;9.48;;;5.90;;
26391;SDS011;14572;43.120;1.178;2024-01-11T10:23:26;9.45;;;5.95;;
26391;SDS011;14572;43.120;1.178;2024-01-11T10:25:56;11.55;;;6.82;;
26391;SDS011;14572;43.120;1.178;2024-01-11T10:28:24;9.30;;;5.97;;
26391;SDS011;14572;43.120;1.178;2024-01-11T10:30:51;9.57;;;6.30;;
26391;SDS011;14572;43.120;1.178;2024-01-11T10:33:19;9.68;;;5.82;;
26391;SDS011;14572;43.120;1.178;2024-01-11T10:35:47;9.70;;;6.40;;
26391;SDS011;14572;43.120;1.178;2024-01-11T10:38:15;11.32;;;6.95;;
26391;SDS011;14572;43.120;1.178;2024-01-11T10:40:42;9.48;;;5.93;;
26391;SDS011;14572;43.120;1.178;2024-01-11T10:43:11;9.15;;;5.97;;
26391;SDS011;14572;43.120;1.178;2024-01-11T10:45:40;10.98;;;5.15;;
26391;SDS011;14572;43.120;1.178;2024-01-11T10:48:13;7.72;;;4.72;;
26391;SDS011;14572;43.120;1.178;2024-01-11T10:50:41;9.68;;;5.15;;
26391;SDS011;14572;43.120;1.178;2024-01-11T10:53:12;6.93;;;4.88;;
26391;SDS011;14572;43.120;1.178;2024-01-11T10:55:50;7.85;;;4.93;;
26391;SDS011;14572;43.120;1.178;2024-01-11T10:58:19;7.70;;;5.32;;
26391;SDS011;14572;43.120;1.178;2024-01-11T11:00:46;9.73;;;5.90;;
26391;SDS011;14572;43.120;1.178;2024-01-11T11:03:14;8.80;;;5.95;;
26391;SDS011;14572;43.120;1.178;2024-01-11T11:05:42;9.40;;;6.03;;
26391;SDS011;14572;43.120;1.178;2024-01-11T11:08:09;8.80;;;5.70;;
26391;SDS011;14572;43.120;1.178;2024-01-11T11:10:37;8.10;;;5.03;;
26391;SDS011;14572;43.120;1.178;2024-01-11T11:13:05;6.88;;;4.93;;
26391;SDS011;14572;43.120;1.178;2024-01-11T11:15:34;11.18;;;5.28;;
26391;SDS011;14572;43.120;1.178;2024-01-11T11:18:03;8.00;;;3.83;;
26391;SDS011;14572;43.120;1.178;2024-01-11T11:20:31;6.82;;;4.60;;
26391;SDS011;14572;43.120;1.178;2024-01-11T11:23:04;5.95;;;4.10;;
26391;SDS011;14572;43.120;1.178;2024-01-11T11:25:32;4.63;;;3.65;;
26391;SDS011;14572;43.120;1.178;2024-01-11T11:28:00;6.68;;;4.22;;
26391;SDS011;14572;43.120;1.178;2024-01-11T11:30:29;5.95;;;3.85;;
26391;SDS011;14572;43.120;1.178;2024-01-11T11:32:58;6.13;;;3.58;;
26391;SDS011;14572;43.120;1.178;2024-01-11T11:35:25;5.70;;;3.58;;
26391;SDS011;14572;43.120;1.178;2024-01-11T11:37:55;7.07;;;4.10;;
26391;SDS011;14572;43.120;1.178;2024-01-11T11:40:31;6.13;;;3.88;;
26391;SDS011;14572;43.120;1.178;2024-01-11T11:43:00;8.05;;;4.72;;
26391;SDS011;14572;43.120;1.178;2024-01-11T11:45:30;5.57;;;3.50;;
26391;SDS011;14572;43.120;1.178;2024-01-11T11:47:59;6.65;;;4.18;;
26391;SDS011;14572;43.120;1.178;2024-01-11T11:50:26;6.30;;;3.92;;
26391;SDS011;14572;43.120;1.178;2024-01-11T11:52:53;5.50;;;3.67;;
26391;SDS011;14572;43.120;1.178;2024-01-11T11:55:22;5.78;;;3.72;;
26391;SDS011;14572;43.120;1.178;2024-01-11T11:57:50;6.18;;;4.35;;
26391;SDS011;14572;43.120;1.178;2024-01-11T12:00:18;7.75;;;5.10;;
26391;SDS011;14572;43.120;1.178;2024-01-11T12:02:46;7.90;;;4.38;;
26391;SDS011;14572;43.120;1.178;2024-01-11T12:05:16;5.22;;;3.65;;
26391;SDS011;14572;43.120;1.178;2024-01-11T12:07:43;5.63;;;3.47;;
26391;SDS011;14572;43.120;1.178;2024-01-11T12:10:10;4.60;;;3.58;;
26391;SDS011;14572;43.120;1.178;2024-01-11T12:12:38;4.25;;;3.05;;
26391;SDS011;14572;43.120;1.178;2024-01-11T12:15:05;6.65;;;3.65;;
26391;SDS011;14572;43.120;1.178;2024-01-11T12:17:33;8.60;;;3.83;;
26391;SDS011;14572;43.120;1.178;2024-01-11T12:20:00;6.30;;;4.18;;
26391;SDS011;14572;43.120;1.178;2024-01-11T12:22:28;5.05;;;3.38;;
26391;SDS011;14572;43.120;1.178;2024-01-11T12:24:55;5.45;;;3.40;;
26391;SDS011;14572;43.120;1.178;2024-01-11T12:27:22;4.95;;;3.47;;
26391;SDS011;14572;43.120;1.178;2024-01-11T12:29:49;5.57;;;3.55;;
26391;SDS011;14572;43.120;1.178;2024-01-11T12:32:16;5.47;;;3.67;;
26391;SDS011;14572;43.120;1.178;2024-01-11T12:34:44;5.35;;;3.90;;
26391;SDS011;14572;43.120;1.178;2024-01-11T12:37:11;5.90;;;4.13;;
26391;SDS011;14572;43.120;1.178;2024-01-11T12:39:39;5.95;;;4.18;;
26391;SDS011;14572;43.120;1.178;2024-01-11T12:42:06;6.07;;;4.28;;
26391;SDS011;14572;43.120;1.178;2024-01-11T12:44:34;7.35;;;4.85;;
26391;SDS011;14572;43.120;1.178;2024-01-11T12:47:03;7.78;;;5.15;;
26391;SDS011;14572;43.120;1.178;2024-01-11T12:49:32;7.80;;;5.18;;
26391;SDS011;14572;43.120;1.178;2024-01-11T12:51:59;5.95;;;4.15;;
26391;SDS011;14572;43.120;1.178;2024-01-11T12:54:26;6.65;;;4.60;;
26391;SDS011;14572;43.120;1.178;2024-01-11T12:56:54;6.68;;;4.53;;
26391;SDS011;14572;43.120;1.178;2024-01-11T12:59:25;7.07;;;4.50;;
26391;SDS011;14572;43.120;1.178;2024-01-11T13:01:52;7.25;;;5.15;;
26391;SDS011;14572;43.120;1.178;2024-01-11T13:04:19;9.10;;;5.68;;
26391;SDS011;14572;43.120;1.178;2024-01-11T13:06:46;8.82;;;5.35;;
26391;SDS011;14572;43.120;1.178;2024-01-11T13:09:13;7.43;;;5.32;;
26391;SDS011;14572;43.120;1.178;2024-01-11T13:11:40;7.80;;;5.40;;
26391;SDS011;14572;43.120;1.178;2024-01-11T13:14:09;8.27;;;4.90;;
26391;SDS011;14572;43.120;1.178;2024-01-11T13:16:43;9.73;;;5.75;;
26391;SDS011;14572;43.120;1.178;2024-01-11T13:19:10;6.85;;;4.78;;
26391;SDS011;14572;43.120;1.178;2024-01-11T13:21:37;9.73;;;5.18;;
26391;SDS011;14572;43.120;1.178;2024-01-11T13:24:04;8.13;;;5.32;;
26391;SDS011;14572;43.120;1.178;2024-01-11T13:26:32;8.45;;;5.05;;
26391;SDS011;14572;43.120;1.178;2024-01-11T13:29:00;9.60;;;5.43;;
26391;SDS011;14572;43.120;1.178;2024-01-11T13:31:28;8.20;;;5.43;;
26391;SDS011;14572;43.120;1.178;2024-01-11T13:33:55;8.57;;;5.15;;
26391;SDS011;14572;43.120;1.178;2024-01-11T13:36:22;8.35;;;5.60;;
26391;SDS011;14572;43.120;1.178;2024-01-11T13:38:49;10.00;;;5.07;;
26391;SDS011;14572;43.120;1.178;2024-01-11T13:41:16;8.07;;;5.22;;
26391;SDS011;14572;43.120;1.178;2024-01-11T13:43:43;8.35;;;4.93;;
26391;SDS011;14572;43.120;1.178;2024-01-11T13:46:10;10.82;;;5.40;;
26391;SDS011;14572;43.120;1.178;2024-01-11T13:48:43;6.68;;;4.60;;
26391;SDS011;14572;43.120;1.178;2024-01-11T13:51:10;9.18;;;5.40;;
26391;SDS011;14572;43.120;1.178;2024-01-11T13:53:38;8.77;;;5.20;;
26391;SDS011;14572;43.120;1.178;2024-01-11T13:56:05;9.15;;;5.53;;
26391;SDS011;14572;43.120;1.178;2024-01-11T13:58:32;8.65;;;5.72;;
26391;SDS011;14572;43.120;1.178;2024-01-11T14:00:59;9.52;;;5.50;;
26391;SDS011;14572;43.120;1.178;2024-01-11T14:03:26;8.13;;;5.80;;
26391;SDS011;14572;43.120;1.178;2024-01-11T14:05:54;9.52;;;5.65;;
26391;SDS011;14572;43.120;1.178;2024-01-11T14:08:22;10.20;;;6.53;;
26391;SDS011;14572;43.120;1.178;2024-01-11T14:10:49;9.20;;;5.70;;
26391;SDS011;14572;43.120;1.178;2024-01-11T14:13:16;8.07;;;5.53;;
26391;SDS011;14572;43.120;1.178;2024-01-11T14:15:43;11.43;;;6.05;;
26391;SDS011;14572;43.120;1.178;2024-01-11T14:18:13;9.70;;;5.30;;
26391;SDS011;14572;43.120;1.178;2024-01-11T14:20:40;10.52;;;6.05;;
26391;SDS011;14572;43.120;1.178;2024-01-11T14:23:09;8.00;;;5.22;;
26391;SDS011;14572;43.120;1.178;2024-01-11T14:25:36;8.98;;;5.65;;
26391;SDS011;14572;43.120;1.178;2024-01-11T14:28:03;9.50;;;5.72;;
26391;SDS011;14572;43.120;1.178;2024-01-11T14:30:30;9.77;;;5.55;;
26391;SDS011;14572;43.120;1.178;2024-01-11T14:32:58;9.18;;;5.55;;
26391;SDS011;14572;43.120;1.178;2024-01-11T14:35:25;8.18;;;5.53;;